Time;durP1;ratioP1;P1;durP2;ratioP2;P2;SDS_P1;SDS_P2;PMS_P1;PMS_P2;Temp;Humidity;BMP_temperature;BMP_pressure;BME280_temperature;BME280_humidity;BME280_pressure;Samples;Min_cycle;Max_cycle;Signal;HPM_P1;HPM_P2
2023/02/01 00:02:12;;;;;;;;;;;6.10;99.90;;;;;;5052310;28;20414;-72
2023/02/01 00:04:39;;;;;;;;;;;6.20;99.90;;;;;;5051844;28;20358;-72
2023/02/01 00:07:07;;;;;;;;;;;6.20;99.90;;;;;;5051980;28;20368;-72
2023/02/01 00:09:34;;;;;;;;;;;6.20;99.90;;;;;;5042413;28;19931;-71
2023/02/01 00:12:02;;;;;;;;;;;6.20;99.90;;;;;;5053011;28;20295;-72
2023/02/01 00:14:29;;;;;;;;;;;6.30;99.90;;;;;;5051528;28;20017;-72
2023/02/01 00:16:55;;;;;;;;;;;6.30;99.90;;;;;;5053775;28;20456;-72
2023/02/01 00:19:22;;;;;;;;;;;6.40;99.90;;;;;;5053842;28;19931;-72
2023/02/01 00:21:49;;;;;;;;;;;6.40;99.90;;;;;;5051356;28;19925;-73
2023/02/01 00:24:17;;;;;;;;;;;6.40;99.90;;;;;;5051847;28;20293;-71
2023/02/01 00:26:45;;;;;;;;;;;6.50;99.90;;;;;;5049327;28;19925;-71
2023/02/01 00:29:12;;;;;;;;;;;6.50;99.90;;;;;;5046915;28;19925;-72
2023/02/01 00:31:39;;;;;;;;;;;6.40;99.90;;;;;;5048837;28;19925;-72
2023/02/01 00:34:06;;;;;;;;;;;6.40;99.90;;;;;;5050558;28;19925;-73
2023/02/01 00:36:33;;;;;;;;;;;6.40;99.90;;;;;;5048531;28;19931;-71
2023/02/01 00:38:59;;;;;;;;;;;6.40;99.90;;;;;;5047810;28;19925;-71
2023/02/01 00:41:28;;;;;;;;;;;6.30;99.90;;;;;;5049146;28;20011;-72
2023/02/01 00:43:54;;;;;;;;;;;6.30;99.90;;;;;;5045968;28;19939;-71
2023/02/01 00:46:22;;;;;;;;;;;6.30;99.90;;;;;;5048618;28;19967;-72
2023/02/01 00:48:49;;;;;;;;;;;6.30;99.90;;;;;;5047304;28;19929;-72
2023/02/01 00:51:16;;;;;;;;;;;6.30;99.90;;;;;;5048292;28;19931;-73
2023/02/01 00:53:43;;;;;;;;;;;6.20;99.90;;;;;;5045276;28;20310;-71
2023/02/01 00:56:09;;;;;;;;;;;6.20;99.90;;;;;;5045459;28;19925;-72
2023/02/01 00:58:38;;;;;;;;;;;6.10;99.90;;;;;;5040962;28;20294;-72
2023/02/01 01:01:06;;;;;;;;;;;6.20;99.90;;;;;;5044567;28;20295;-72
2023/02/01 01:03:34;;;;;;;;;;;6.20;99.90;;;;;;5047840;28;20379;-72
2023/02/01 01:06:01;;;;;;;;;;;6.10;99.90;;;;;;5049440;28;19925;-71
2023/02/01 01:08:28;;;;;;;;;;;6.10;99.90;;;;;;5047481;28;20016;-71
2023/02/01 01:10:54;;;;;;;;;;;6.20;99.90;;;;;;5048592;28;20446;-71
2023/02/01 01:13:21;;;;;;;;;;;6.20;99.90;;;;;;5047432;28;20390;-71
2023/02/01 01:15:49;;;;;;;;;;;6.20;99.90;;;;;;5047804;28;19931;-71
2023/02/01 01:18:16;;;;;;;;;;;6.20;99.90;;;;;;5047265;28;20303;-72
2023/02/01 01:20:42;;;;;;;;;;;6.20;99.90;;;;;;5047935;28;20351;-70
2023/02/01 01:23:09;;;;;;;;;;;6.20;99.90;;;;;;5046180;28;19924;-70
2023/02/01 01:25:37;;;;;;;;;;;6.20;99.90;;;;;;5049975;28;19978;-70
2023/02/01 01:28:04;;;;;;;;;;;6.20;99.90;;;;;;5047328;28;19925;-70
2023/02/01 01:30:31;;;;;;;;;;;6.20;99.90;;;;;;5047235;28;19928;-71
2023/02/01 01:32:59;;;;;;;;;;;6.20;99.90;;;;;;5047989;28;20308;-70
2023/02/01 01:35:26;;;;;;;;;;;6.10;99.90;;;;;;5048999;28;19964;-70
2023/02/01 01:37:52;;;;;;;;;;;6.10;99.90;;;;;;5041663;28;20016;-70
2023/02/01 01:40:19;;;;;;;;;;;6.00;99.90;;;;;;5047125;28;20027;-70
2023/02/01 01:42:45;;;;;;;;;;;5.90;99.90;;;;;;5047966;28;19957;-70
2023/02/01 01:45:20;;;;;;;;;;;5.80;99.90;;;;;;5046530;28;20028;-70
2023/02/01 01:47:49;;;;;;;;;;;5.70;99.90;;;;;;5039158;28;19935;-70
2023/02/01 01:50:19;;;;;;;;;;;5.60;99.90;;;;;;5048779;28;19970;-71
2023/02/01 01:52:47;;;;;;;;;;;5.50;99.90;;;;;;5046845;28;20372;-70
2023/02/01 01:55:14;;;;;;;;;;;5.50;99.90;;;;;;5047235;28;19968;-70
2023/02/01 01:57:43;;;;;;;;;;;5.40;99.90;;;;;;5046932;28;20056;-70
2023/02/01 02:00:12;;;;;;;;;;;5.40;99.90;;;;;;5046138;28;20027;-71
2023/02/01 02:02:39;;;;;;;;;;;5.40;99.90;;;;;;5046355;28;20063;-71
2023/02/01 02:05:06;;;;;;;;;;;5.40;99.90;;;;;;5047870;28;20054;-71
2023/02/01 02:07:36;;;;;;;;;;;5.30;99.90;;;;;;5047941;28;19931;-71
2023/02/01 02:10:05;;;;;;;;;;;5.30;99.90;;;;;;5049367;28;20322;-71
2023/02/01 02:12:32;;;;;;;;;;;5.40;99.90;;;;;;5048340;28;20474;-71
2023/02/01 02:14:59;;;;;;;;;;;5.30;99.90;;;;;;5044139;28;19928;-71
2023/02/01 02:17:38;;;;;;;;;;;5.30;99.90;;;;;;5048300;28;19964;-71
2023/02/01 02:20:24;;;;;;;;;;;5.20;99.90;;;;;;5045055;28;20019;-71
2023/02/01 02:23:07;;;;;;;;;;;5.20;99.90;;;;;;5047868;28;20382;-71
2023/02/01 02:25:54;;;;;;;;;;;5.20;99.90;;;;;;5045780;28;19924;-71
2023/02/01 02:28:51;;;;;;;;;;;5.20;99.90;;;;;;5048355;28;19935;-70
2023/02/01 02:31:30;;;;;;;;;;;5.20;99.90;;;;;;5040429;28;21992;-69
2023/02/01 02:34:06;;;;;;;;;;;5.20;99.90;;;;;;5046538;28;19935;-69
2023/02/01 02:36:38;;;;;;;;;;;5.20;99.90;;;;;;5047260;28;19932;-69
2023/02/01 02:39:08;;;;;;;;;;;5.20;99.90;;;;;;5045555;28;19933;-68
2023/02/01 02:47:26;;;;;;;;;;;5.00;99.90;;;;;;5047975;28;19932;-69
2023/02/01 02:55:26;;;;;;;;;;;5.00;99.90;;;;;;5044672;28;20422;-68
2023/02/01 03:06:10;;;;;;;;;;;5.10;99.90;;;;;;5044437;28;20433;-68
2023/02/01 03:08:36;;;;;;;;;;;5.10;99.90;;;;;;5049667;28;19931;-69
2023/02/01 03:11:05;;;;;;;;;;;5.10;99.90;;;;;;5047545;28;20021;-70
2023/02/01 03:13:36;;;;;;;;;;;5.00;99.90;;;;;;5048031;28;19925;-70
2023/02/01 03:16:05;;;;;;;;;;;5.10;99.90;;;;;;5047456;28;19966;-71
2023/02/01 03:18:34;;;;;;;;;;;5.00;99.90;;;;;;5050121;28;19979;-70
2023/02/01 03:21:03;;;;;;;;;;;5.10;99.90;;;;;;5046112;28;19931;-70
2023/02/01 03:23:34;;;;;;;;;;;5.10;99.90;;;;;;5049739;28;19937;-70
2023/02/01 03:26:02;;;;;;;;;;;5.10;99.90;;;;;;5046925;28;19925;-70
2023/02/01 03:28:30;;;;;;;;;;;5.10;99.90;;;;;;5050756;28;19925;-70
2023/02/01 03:30:57;;;;;;;;;;;5.10;99.90;;;;;;5050290;28;19963;-70
2023/02/01 03:33:25;;;;;;;;;;;5.10;99.90;;;;;;5048586;28;20372;-70
2023/02/01 03:35:57;;;;;;;;;;;5.10;99.90;;;;;;5045327;28;20303;-70
2023/02/01 03:38:25;;;;;;;;;;;5.10;99.90;;;;;;5049351;28;19932;-71
2023/02/01 03:40:55;;;;;;;;;;;5.10;99.90;;;;;;5048635;28;19991;-71
2023/02/01 03:43:22;;;;;;;;;;;5.20;99.90;;;;;;5045471;28;20000;-70
2023/02/01 03:45:50;;;;;;;;;;;5.20;99.90;;;;;;5050063;28;19925;-70
2023/02/01 03:48:18;;;;;;;;;;;5.10;99.90;;;;;;5047780;28;20015;-70
2023/02/01 03:50:47;;;;;;;;;;;5.10;99.90;;;;;;5044388;28;19925;-70
2023/02/01 03:53:16;;;;;;;;;;;5.10;99.90;;;;;;5041331;28;20249;-71
2023/02/01 03:55:43;;;;;;;;;;;5.00;99.90;;;;;;5051008;28;19925;-71
2023/02/01 03:58:13;;;;;;;;;;;5.00;99.90;;;;;;5049422;28;19925;-71
2023/02/01 04:00:40;;;;;;;;;;;5.00;99.90;;;;;;5050828;28;19939;-73
2023/02/01 04:03:07;;;;;;;;;;;5.00;99.90;;;;;;5047316;28;19925;-71
2023/02/01 04:05:34;;;;;;;;;;;4.90;99.90;;;;;;5050069;28;20422;-71
2023/02/01 04:08:01;;;;;;;;;;;5.00;99.90;;;;;;5049726;28;19931;-70
2023/02/01 04:10:27;;;;;;;;;;;5.00;99.90;;;;;;5047738;28;20027;-71
2023/02/01 04:12:54;;;;;;;;;;;4.90;99.90;;;;;;5048259;28;19948;-70
2023/02/01 04:15:22;;;;;;;;;;;4.90;99.90;;;;;;5049993;28;19968;-69
2023/02/01 04:17:49;;;;;;;;;;;4.90;99.90;;;;;;5042810;28;19925;-69
2023/02/01 04:20:16;;;;;;;;;;;4.90;99.90;;;;;;5049894;28;19928;-69
2023/02/01 04:22:42;;;;;;;;;;;4.90;99.90;;;;;;5048797;28;20032;-69
2023/02/01 04:25:09;;;;;;;;;;;4.80;99.90;;;;;;5046117;28;20011;-69
2023/02/01 04:27:36;;;;;;;;;;;4.80;99.90;;;;;;5045549;28;19964;-70
2023/02/01 04:30:02;;;;;;;;;;;4.80;99.90;;;;;;5050428;28;20015;-70
2023/02/01 04:32:30;;;;;;;;;;;4.90;99.90;;;;;;5044713;28;19935;-71
2023/02/01 04:34:57;;;;;;;;;;;4.90;99.90;;;;;;5050440;28;19924;-71
2023/02/01 04:37:24;;;;;;;;;;;4.90;99.90;;;;;;5048506;28;19925;-71
2023/02/01 04:39:50;;;;;;;;;;;4.80;99.90;;;;;;5050849;28;20357;-71
2023/02/01 04:42:17;;;;;;;;;;;4.80;99.90;;;;;;5049951;28;20374;-70
2023/02/01 04:44:44;;;;;;;;;;;4.80;99.90;;;;;;5047153;28;19951;-71
2023/02/01 04:47:10;;;;;;;;;;;4.80;99.90;;;;;;5047450;28;20392;-67
2023/02/01 04:49:38;;;;;;;;;;;4.70;99.90;;;;;;5048752;28;19924;-70
2023/02/01 04:52:05;;;;;;;;;;;4.70;99.90;;;;;;5051247;28;19925;-70
2023/02/01 04:54:32;;;;;;;;;;;4.70;99.90;;;;;;5048942;28;20015;-70
2023/02/01 04:56:58;;;;;;;;;;;4.70;99.90;;;;;;5045052;28;19925;-71
2023/02/01 04:59:25;;;;;;;;;;;4.70;99.90;;;;;;5045118;28;19928;-69
2023/02/01 05:01:52;;;;;;;;;;;4.60;99.90;;;;;;5048079;28;19972;-71
2023/02/01 05:04:19;;;;;;;;;;;4.60;99.90;;;;;;5045920;28;20401;-70
2023/02/01 05:06:47;;;;;;;;;;;4.60;99.90;;;;;;5049478;28;19932;-71
2023/02/01 05:09:13;;;;;;;;;;;4.60;99.90;;;;;;5047518;28;19925;-71
2023/02/01 05:14:25;;;;;;;;;;;4.50;99.90;;;;;;5048526;28;19935;-71
2023/02/01 05:16:51;;;;;;;;;;;4.50;99.90;;;;;;5049745;28;19976;-71
2023/02/01 05:19:18;;;;;;;;;;;4.60;99.90;;;;;;5044499;28;20315;-71
2023/02/01 05:21:45;;;;;;;;;;;4.50;99.90;;;;;;5047771;28;20498;-71
2023/02/01 05:24:16;;;;;;;;;;;4.60;99.90;;;;;;5048446;28;20321;-70
2023/02/01 05:26:42;;;;;;;;;;;4.60;99.90;;;;;;5048491;28;19933;-71
2023/02/01 05:29:10;;;;;;;;;;;4.60;99.90;;;;;;5045385;28;19925;-71
2023/02/01 05:31:36;;;;;;;;;;;4.60;99.90;;;;;;5044696;28;19924;-71
2023/02/01 05:34:03;;;;;;;;;;;4.60;99.90;;;;;;5047247;28;19925;-71
2023/02/01 05:36:30;;;;;;;;;;;4.60;99.90;;;;;;5048995;28;20432;-71
2023/02/01 05:38:57;;;;;;;;;;;4.60;99.90;;;;;;5048355;28;19925;-71
2023/02/01 05:41:25;;;;;;;;;;;4.50;99.90;;;;;;5048272;28;20372;-71
2023/02/01 05:43:51;;;;;;;;;;;4.50;99.90;;;;;;5044759;28;20015;-71
2023/02/01 05:46:18;;;;;;;;;;;4.50;99.90;;;;;;5046539;28;19931;-71
2023/02/01 05:48:45;;;;;;;;;;;4.50;99.90;;;;;;5043961;28;19931;-71
2023/02/01 05:51:12;;;;;;;;;;;4.50;99.90;;;;;;5048869;28;20027;-72
2023/02/01 05:53:38;;;;;;;;;;;4.50;99.90;;;;;;5048123;28;20375;-71
2023/02/01 05:56:06;;;;;;;;;;;4.50;99.90;;;;;;5048049;28;19925;-70
2023/02/01 05:58:34;;;;;;;;;;;4.50;99.90;;;;;;5045546;28;20406;-71
2023/02/01 06:01:00;;;;;;;;;;;4.50;99.90;;;;;;5048068;28;19947;-71
2023/02/01 06:03:27;;;;;;;;;;;4.50;99.90;;;;;;5044068;28;19933;-71
2023/02/01 06:05:54;;;;;;;;;;;4.40;99.90;;;;;;5048732;28;19932;-70
2023/02/01 06:08:20;;;;;;;;;;;4.40;99.90;;;;;;5046400;28;19928;-70
2023/02/01 06:10:47;;;;;;;;;;;4.40;99.90;;;;;;5043584;28;19925;-71
2023/02/01 06:13:14;;;;;;;;;;;4.40;99.90;;;;;;5047273;28;20179;-74
2023/02/01 06:15:43;;;;;;;;;;;4.40;99.90;;;;;;5048350;28;19939;-75
2023/02/01 06:18:10;;;;;;;;;;;4.40;99.90;;;;;;5039583;28;19998;-73
2023/02/01 06:20:37;;;;;;;;;;;4.40;99.90;;;;;;5040634;28;19924;-73
2023/02/01 06:23:04;;;;;;;;;;;4.40;99.90;;;;;;5046872;28;19986;-72
2023/02/01 06:25:31;;;;;;;;;;;4.40;99.90;;;;;;5046583;28;19932;-73
2023/02/01 06:28:00;;;;;;;;;;;4.40;99.90;;;;;;5046130;28;20035;-74
2023/02/01 06:30:27;;;;;;;;;;;4.40;99.90;;;;;;5041740;28;19964;-73
2023/02/01 06:32:55;;;;;;;;;;;4.40;99.90;;;;;;5041344;28;20326;-74
2023/02/01 06:35:22;;;;;;;;;;;4.40;99.90;;;;;;5047269;28;20280;-73
2023/02/01 06:37:49;;;;;;;;;;;4.40;99.90;;;;;;5044976;28;20518;-74
2023/02/01 06:40:15;;;;;;;;;;;4.40;99.90;;;;;;5047041;28;20018;-74
2023/02/01 06:42:43;;;;;;;;;;;4.30;99.90;;;;;;5046783;28;19929;-74
2023/02/01 06:45:14;;;;;;;;;;;4.30;99.90;;;;;;5050218;28;19968;-74
2023/02/01 06:47:42;;;;;;;;;;;4.30;99.90;;;;;;5047854;28;19980;-74
2023/02/01 06:50:11;;;;;;;;;;;4.30;99.90;;;;;;5050998;28;19948;-73
2023/02/01 06:52:38;;;;;;;;;;;4.30;99.90;;;;;;5046655;28;20015;-74
2023/02/01 06:55:06;;;;;;;;;;;4.30;99.90;;;;;;5050536;28;19925;-74
2023/02/01 06:57:35;;;;;;;;;;;4.30;99.90;;;;;;5046170;28;19925;-74
2023/02/01 07:00:02;;;;;;;;;;;4.30;99.90;;;;;;5046680;28;19991;-74
2023/02/01 07:02:29;;;;;;;;;;;4.30;99.90;;;;;;5052126;28;19931;-75
2023/02/01 07:04:56;;;;;;;;;;;4.30;99.90;;;;;;5049620;28;19925;-76
2023/02/01 07:07:25;;;;;;;;;;;4.30;99.90;;;;;;5046628;28;19925;-74
2023/02/01 07:09:52;;;;;;;;;;;4.30;99.90;;;;;;5053361;28;19972;-74
2023/02/01 07:12:20;;;;;;;;;;;4.30;99.90;;;;;;5052819;28;19931;-75
2023/02/01 07:14:47;;;;;;;;;;;4.30;99.90;;;;;;5051349;28;19978;-74
2023/02/01 07:17:14;;;;;;;;;;;4.30;99.90;;;;;;5052695;28;20019;-75
2023/02/01 07:19:41;;;;;;;;;;;4.30;99.90;;;;;;5048950;28;19929;-75
2023/02/01 07:22:12;;;;;;;;;;;4.30;99.90;;;;;;5053492;28;19925;-75
2023/02/01 07:24:40;;;;;;;;;;;4.30;99.90;;;;;;5050776;28;19936;-74
2023/02/01 07:27:07;;;;;;;;;;;4.30;99.90;;;;;;5053499;28;19925;-74
2023/02/01 07:29:34;;;;;;;;;;;4.30;99.90;;;;;;5050922;28;19968;-81
2023/02/01 07:32:02;;;;;;;;;;;4.30;99.90;;;;;;5052441;28;20375;-79
2023/02/01 07:34:30;;;;;;;;;;;4.30;99.90;;;;;;5047673;28;19925;-80
2023/02/01 07:37:00;;;;;;;;;;;4.30;99.90;;;;;;5039769;28;20007;-80
2023/02/01 07:39:28;;;;;;;;;;;4.30;99.90;;;;;;5038170;28;19925;-74
2023/02/01 07:41:56;;;;;;;;;;;4.30;99.90;;;;;;5042423;28;19925;-76
2023/02/01 07:44:23;;;;;;;;;;;4.30;99.90;;;;;;5039832;28;19932;-75
2023/02/01 07:46:51;;;;;;;;;;;4.40;99.90;;;;;;5042624;28;19925;-74
2023/02/01 07:49:18;;;;;;;;;;;4.40;99.90;;;;;;5043381;28;19925;-76
2023/02/01 07:51:45;;;;;;;;;;;4.40;99.90;;;;;;5044507;28;19964;-75
2023/02/01 07:54:12;;;;;;;;;;;4.50;99.90;;;;;;5044809;28;19925;-77
2023/02/01 07:56:39;;;;;;;;;;;4.50;99.90;;;;;;5049468;28;20304;-76
2023/02/01 07:59:08;;;;;;;;;;;4.60;99.90;;;;;;5045252;28;19982;-75
2023/02/01 08:01:39;;;;;;;;;;;4.70;99.90;;;;;;5049429;28;20015;-75
2023/02/01 08:04:06;;;;;;;;;;;4.70;99.90;;;;;;5042827;28;19956;-74
2023/02/01 08:06:34;;;;;;;;;;;4.80;99.90;;;;;;5048623;28;19925;-76
2023/02/01 08:09:02;;;;;;;;;;;4.90;99.90;;;;;;5042639;28;19976;-77
2023/02/01 08:11:29;;;;;;;;;;;5.00;99.90;;;;;;5045739;28;20379;-71
2023/02/01 08:13:56;;;;;;;;;;;5.10;99.90;;;;;;5044874;28;19956;-77
2023/02/01 08:16:25;;;;;;;;;;;5.10;99.90;;;;;;5048561;28;19986;-75
2023/02/01 08:18:53;;;;;;;;;;;5.10;99.90;;;;;;5044807;28;19933;-76
2023/02/01 08:21:21;;;;;;;;;;;5.10;99.90;;;;;;5048002;28;19925;-77
2023/02/01 08:23:49;;;;;;;;;;;5.10;99.90;;;;;;5048823;28;19933;-78
2023/02/01 08:26:18;;;;;;;;;;;5.10;99.90;;;;;;5045437;28;19925;-78
2023/02/01 08:28:48;;;;;;;;;;;5.10;99.90;;;;;;5046351;28;19971;-77
2023/02/01 08:31:17;;;;;;;;;;;5.10;99.90;;;;;;5045604;28;19925;-78
2023/02/01 08:33:49;;;;;;;;;;;5.10;99.90;;;;;;5041779;28;20008;-78
2023/02/01 08:36:16;;;;;;;;;;;5.10;99.90;;;;;;5042588;28;19968;-78
2023/02/01 08:38:44;;;;;;;;;;;5.20;99.90;;;;;;5041451;28;19925;-78
2023/02/01 08:41:12;;;;;;;;;;;5.30;99.90;;;;;;5043573;28;19968;-78
2023/02/01 08:43:38;;;;;;;;;;;5.30;99.90;;;;;;5045840;28;20388;-77
2023/02/01 08:46:06;;;;;;;;;;;5.30;99.90;;;;;;5050559;28;19924;-78
2023/02/01 08:48:34;;;;;;;;;;;5.30;99.90;;;;;;5047848;28;20015;-77
2023/02/01 08:51:04;;;;;;;;;;;5.50;99.90;;;;;;5041632;28;20399;-78
2023/02/01 08:53:31;;;;;;;;;;;5.60;99.90;;;;;;5045578;28;19925;-77
2023/02/01 08:55:58;;;;;;;;;;;5.60;99.90;;;;;;5044801;28;19924;-78
2023/02/01 08:58:28;;;;;;;;;;;5.60;99.90;;;;;;5048854;28;19936;-78
2023/02/01 09:00:59;;;;;;;;;;;5.80;99.90;;;;;;5049935;28;20148;-77
2023/02/01 09:03:26;;;;;;;;;;;5.90;99.90;;;;;;5041560;28;20378;-77
2023/02/01 09:05:53;;;;;;;;;;;6.00;99.90;;;;;;5037172;28;19940;-77
2023/02/01 09:08:22;;;;;;;;;;;6.30;99.90;;;;;;5045984;28;19924;-77
2023/02/01 09:10:53;;;;;;;;;;;7.00;99.90;;;;;;5049005;28;19925;-76
2023/02/01 09:13:25;;;;;;;;;;;7.50;99.90;;;;;;5043484;28;20495;-75
2023/02/01 09:15:52;;;;;;;;;;;7.00;99.90;;;;;;5045197;28;20284;-75
2023/02/01 09:18:20;;;;;;;;;;;6.90;99.90;;;;;;5042371;28;20031;-74
2023/02/01 09:20:47;;;;;;;;;;;7.10;99.90;;;;;;5049873;28;20390;-76
2023/02/01 09:23:17;;;;;;;;;;;7.50;99.90;;;;;;5039733;28;20007;-77
2023/02/01 09:25:46;;;;;;;;;;;7.40;99.90;;;;;;5048834;28;19936;-76
2023/02/01 09:28:13;;;;;;;;;;;7.50;99.90;;;;;;5039956;28;19929;-78
2023/02/01 09:30:43;;;;;;;;;;;8.00;99.90;;;;;;5043204;28;19991;-71
2023/02/01 09:33:10;;;;;;;;;;;8.50;99.90;;;;;;5038861;28;19943;-76
2023/02/01 09:35:40;;;;;;;;;;;8.50;99.90;;;;;;5044085;28;19925;-77
2023/02/01 09:38:10;;;;;;;;;;;8.30;99.90;;;;;;5042186;28;19932;-77
2023/02/01 09:40:43;;;;;;;;;;;8.50;99.90;;;;;;5047903;28;20391;-79
2023/02/01 09:43:21;;;;;;;;;;;8.40;99.90;;;;;;5042579;28;20276;-76
2023/02/01 09:45:53;;;;;;;;;;;7.80;99.90;;;;;;5045848;28;19925;-78
2023/02/01 09:48:24;;;;;;;;;;;7.50;99.90;;;;;;5039226;28;20281;-79
2023/02/01 09:50:54;;;;;;;;;;;7.30;99.90;;;;;;5041407;28;20419;-79
2023/02/01 09:53:24;;;;;;;;;;;7.30;99.90;;;;;;5043012;28;20406;-76
2023/02/01 09:55:52;;;;;;;;;;;7.20;99.90;;;;;;5042037;28;19932;-76
2023/02/01 09:58:28;;;;;;;;;;;7.20;99.90;;;;;;5040583;28;19928;-79
2023/02/01 10:00:59;;;;;;;;;;;7.30;99.90;;;;;;5038124;28;19947;-78
2023/02/01 10:03:29;;;;;;;;;;;7.30;99.90;;;;;;5041210;28;19959;-76
2023/02/01 10:06:01;;;;;;;;;;;7.40;99.90;;;;;;5046941;28;19924;-78
2023/02/01 10:08:35;;;;;;;;;;;7.40;99.90;;;;;;5049406;28;20256;-77
2023/02/01 10:11:08;;;;;;;;;;;7.50;99.90;;;;;;5044843;28;20406;-76
2023/02/01 10:13:52;;;;;;;;;;;7.60;99.90;;;;;;5045572;28;19936;-78
2023/02/01 10:16:25;;;;;;;;;;;7.60;99.90;;;;;;5049110;28;20015;-77
2023/02/01 10:18:58;;;;;;;;;;;7.60;99.90;;;;;;5047712;28;20022;-76
2023/02/01 10:21:38;;;;;;;;;;;7.70;99.90;;;;;;5049488;28;19942;-76
2023/02/01 10:24:20;;;;;;;;;;;7.90;99.90;;;;;;5044735;28;19968;-74
2023/02/01 10:26:52;;;;;;;;;;;7.70;99.90;;;;;;5034987;28;19971;-79
2023/02/01 10:29:24;;;;;;;;;;;7.90;99.90;;;;;;5047872;28;20053;-78
2023/02/01 10:31:57;;;;;;;;;;;8.00;99.90;;;;;;5049950;28;19929;-79
2023/02/01 10:34:26;;;;;;;;;;;8.10;99.90;;;;;;5046553;28;20020;-78
2023/02/01 10:36:58;;;;;;;;;;;8.10;99.90;;;;;;5052351;28;19932;-78
2023/02/01 10:39:26;;;;;;;;;;;8.20;99.90;;;;;;5050804;28;19925;-78
2023/02/01 10:41:57;;;;;;;;;;;8.30;99.90;;;;;;5047766;28;19931;-77
2023/02/01 10:44:29;;;;;;;;;;;8.40;99.90;;;;;;5046484;28;19936;-79
2023/02/01 10:46:56;;;;;;;;;;;8.40;99.90;;;;;;5047474;28;20019;-78
2023/02/01 10:49:25;;;;;;;;;;;8.50;99.90;;;;;;5044925;28;19956;-77
2023/02/01 10:51:55;;;;;;;;;;;8.70;99.90;;;;;;5047993;28;19964;-77
2023/02/01 10:54:27;;;;;;;;;;;8.70;99.90;;;;;;5044216;28;20396;-78
2023/02/01 10:56:54;;;;;;;;;;;8.70;99.90;;;;;;5048691;28;19939;-75
2023/02/01 10:59:24;;;;;;;;;;;8.60;99.90;;;;;;5041363;28;20014;-75
2023/02/01 11:01:59;;;;;;;;;;;8.80;99.90;;;;;;5038554;28;19924;-75
2023/02/01 11:04:27;;;;;;;;;;;9.10;99.90;;;;;;5041147;28;20307;-79
2023/02/01 11:07:05;;;;;;;;;;;9.20;99.90;;;;;;5044822;28;19925;-79
2023/02/01 11:09:33;;;;;;;;;;;9.30;99.90;;;;;;5043604;28;19965;-78
2023/02/01 11:12:01;;;;;;;;;;;9.30;99.90;;;;;;5046363;28;19925;-77
2023/02/01 11:14:37;;;;;;;;;;;9.10;99.90;;;;;;5043647;28;19962;-80
2023/02/01 11:17:18;;;;;;;;;;;9.10;99.90;;;;;;5047939;28;19925;-77
2023/02/01 11:19:57;;;;;;;;;;;9.10;99.90;;;;;;5047833;28;19936;-78
2023/02/01 11:22:25;;;;;;;;;;;9.00;99.90;;;;;;5034536;28;19925;-78
2023/02/01 11:24:54;;;;;;;;;;;8.90;99.90;;;;;;5038986;28;19955;-79
2023/02/01 11:27:26;;;;;;;;;;;8.90;99.90;;;;;;5046738;28;19928;-79
2023/02/01 11:29:56;;;;;;;;;;;8.80;99.90;;;;;;5042158;28;19924;-79
2023/02/01 11:32:24;;;;;;;;;;;8.70;99.90;;;;;;5051015;28;20303;-79
2023/02/01 11:35:00;;;;;;;;;;;8.60;99.90;;;;;;5051206;28;20245;-77
2023/02/01 11:37:28;;;;;;;;;;;8.70;99.90;;;;;;5043901;28;19928;-78
2023/02/01 11:39:58;;;;;;;;;;;8.80;99.90;;;;;;5046876;28;19940;-77
2023/02/01 11:42:29;;;;;;;;;;;8.90;99.90;;;;;;5049175;28;20043;-74
2023/02/01 11:45:19;;;;;;;;;;;9.00;99.90;;;;;;5042000;28;19929;-76
2023/02/01 11:47:47;;;;;;;;;;;9.20;99.90;;;;;;5044252;28;20003;-76
2023/02/01 11:50:17;;;;;;;;;;;9.30;99.90;;;;;;5044995;28;19929;-71
2023/02/01 11:52:56;;;;;;;;;;;9.50;99.90;;;;;;5046673;28;20390;-75
2023/02/01 11:55:38;;;;;;;;;;;9.80;99.90;;;;;;5038861;28;19925;-74
2023/02/01 11:58:13;;;;;;;;;;;10.00;99.90;;;;;;5024758;28;19925;-74
2023/02/01 12:00:52;;;;;;;;;;;10.00;99.90;;;;;;5045188;28;19924;-76
2023/02/01 12:03:33;;;;;;;;;;;10.10;99.90;;;;;;5047957;28;20027;-75
2023/02/01 12:06:07;;;;;;;;;;;10.10;99.90;;;;;;5050014;28;19928;-75
2023/02/01 12:08:53;;;;;;;;;;;9.90;99.90;;;;;;5043825;28;20564;-75
2023/02/01 12:11:31;;;;;;;;;;;9.90;99.90;;;;;;5051467;28;20346;-75
2023/02/01 12:14:06;;;;;;;;;;;9.80;99.60;;;;;;5048612;28;19925;-75
2023/02/01 12:16:38;;;;;;;;;;;9.70;99.40;;;;;;5048436;28;19925;-76
2023/02/01 12:19:33;;;;;;;;;;;9.80;99.60;;;;;;5042386;28;19924;-73
2023/02/01 12:22:16;;;;;;;;;;;9.80;99.60;;;;;;5040904;28;20000;-75
2023/02/01 12:24:52;;;;;;;;;;;9.80;99.20;;;;;;5044283;28;20005;-75
2023/02/01 12:27:40;;;;;;;;;;;9.80;99.10;;;;;;5045176;28;19925;-73
2023/02/01 12:30:22;;;;;;;;;;;9.80;98.70;;;;;;5044773;28;19924;-71
2023/02/01 12:32:56;;;;;;;;;;;10.00;98.30;;;;;;5041551;28;19947;-70
2023/02/01 12:35:39;;;;;;;;;;;10.10;97.80;;;;;;5045785;28;20388;-72
2023/02/01 12:38:13;;;;;;;;;;;10.00;97.80;;;;;;5046116;28;20007;-71
2023/02/01 12:40:52;;;;;;;;;;;10.10;98.40;;;;;;5045864;28;20326;-71
2023/02/01 12:43:24;;;;;;;;;;;10.10;97.80;;;;;;5038494;28;19936;-70
2023/02/01 12:45:53;;;;;;;;;;;10.10;98.20;;;;;;5042782;28;19936;-72
2023/02/01 12:48:27;;;;;;;;;;;10.20;97.40;;;;;;5041373;28;20388;-73
2023/02/01 12:50:59;;;;;;;;;;;10.20;97.50;;;;;;5041988;28;19944;-71
2023/02/01 12:53:29;;;;;;;;;;;10.20;97.20;;;;;;5047243;28;19929;-71
2023/02/01 12:55:57;;;;;;;;;;;10.20;97.10;;;;;;5043712;28;19925;-71
2023/02/01 12:58:26;;;;;;;;;;;10.30;97.00;;;;;;5043476;28;19935;-73
2023/02/01 13:01:00;;;;;;;;;;;10.70;96.90;;;;;;5042802;28;19940;-71
2023/02/01 13:03:35;;;;;;;;;;;11.00;95.80;;;;;;5046603;28;19964;-72
2023/02/01 13:06:13;;;;;;;;;;;11.20;95.40;;;;;;5043534;28;20355;-73
2023/02/01 13:08:43;;;;;;;;;;;11.20;94.80;;;;;;5042635;28;19928;-71
2023/02/01 13:11:14;;;;;;;;;;;11.10;94.50;;;;;;5046162;28;20015;-71
2023/02/01 13:13:50;;;;;;;;;;;10.90;94.30;;;;;;5046419;28;20410;-72
2023/02/01 13:16:22;;;;;;;;;;;10.80;94.70;;;;;;5042519;28;19932;-72
2023/02/01 13:18:57;;;;;;;;;;;10.90;94.30;;;;;;5048099;28;19932;-72
2023/02/01 13:21:33;;;;;;;;;;;11.00;95.10;;;;;;5045383;28;19932;-71
2023/02/01 13:24:01;;;;;;;;;;;11.30;94.10;;;;;;5043986;28;19935;-71
2023/02/01 13:26:28;;;;;;;;;;;11.20;93.90;;;;;;5040863;28;20190;-71
2023/02/01 13:28:57;;;;;;;;;;;11.30;94.30;;;;;;5048771;28;19974;-71
2023/02/01 13:31:30;;;;;;;;;;;11.30;93.80;;;;;;5043280;28;19977;-72
2023/02/01 13:34:05;;;;;;;;;;;11.10;94.00;;;;;;5039753;28;19994;-72
2023/02/01 13:36:43;;;;;;;;;;;10.80;94.10;;;;;;5036964;28;19933;-71
2023/02/01 13:39:28;;;;;;;;;;;10.60;94.50;;;;;;5044163;28;19999;-72
2023/02/01 13:41:57;;;;;;;;;;;10.50;95.10;;;;;;5047141;28;19925;-72
2023/02/01 13:44:27;;;;;;;;;;;10.40;95.20;;;;;;5050650;28;20310;-71
2023/02/01 13:46:57;;;;;;;;;;;10.30;95.50;;;;;;5043026;28;20307;-72
2023/02/01 13:49:27;;;;;;;;;;;10.20;95.70;;;;;;5044428;28;19941;-72
2023/02/01 13:51:56;;;;;;;;;;;10.10;96.20;;;;;;5044625;28;19931;-71
2023/02/01 13:54:29;;;;;;;;;;;10.20;96.10;;;;;;5041492;28;20018;-72
2023/02/01 13:56:58;;;;;;;;;;;10.30;96.20;;;;;;5042030;28;19968;-72
2023/02/01 13:59:49;;;;;;;;;;;10.40;96.30;;;;;;5048292;28;19933;-72
2023/02/01 14:02:35;;;;;;;;;;;10.50;96.10;;;;;;5039605;28;19939;-72
2023/02/01 14:05:02;;;;;;;;;;;10.60;96.00;;;;;;5047983;28;19925;-72
2023/02/01 14:07:32;;;;;;;;;;;10.50;95.90;;;;;;5034341;28;20709;-69
2023/02/01 14:10:01;;;;;;;;;;;10.50;96.10;;;;;;5047052;28;20000;-71
2023/02/01 14:12:49;;;;;;;;;;;10.40;96.70;;;;;;5048092;28;19929;-75
2023/02/01 14:15:22;;;;;;;;;;;10.30;96.70;;;;;;5042628;28;19928;-72
2023/02/01 14:17:53;;;;;;;;;;;10.10;96.90;;;;;;5045791;28;20196;-72
2023/02/01 14:20:48;;;;;;;;;;;10.00;96.80;;;;;;5044452;28;19965;-72
2023/02/01 14:23:19;;;;;;;;;;;9.90;97.60;;;;;;5048657;28;20015;-72
2023/02/01 14:25:46;;;;;;;;;;;9.80;97.80;;;;;;5050740;28;19964;-73
2023/02/01 14:28:19;;;;;;;;;;;9.70;98.00;;;;;;5047496;28;19924;-72
2023/02/01 14:30:48;;;;;;;;;;;9.70;98.40;;;;;;5044103;28;19936;-72
2023/02/01 14:33:19;;;;;;;;;;;9.70;98.50;;;;;;5046946;28;19947;-72
2023/02/01 14:35:56;;;;;;;;;;;9.80;98.80;;;;;;5046829;28;19929;-72
2023/02/01 14:38:25;;;;;;;;;;;9.80;98.30;;;;;;5040155;28;20384;-73
2023/02/01 14:40:53;;;;;;;;;;;9.60;98.80;;;;;;5046992;28;19957;-71
2023/02/01 14:43:35;;;;;;;;;;;9.60;99.00;;;;;;5046096;28;19978;-72
2023/02/01 14:46:03;;;;;;;;;;;9.60;98.90;;;;;;5046653;28;19932;-72
2023/02/01 14:48:50;;;;;;;;;;;9.50;98.90;;;;;;5043932;28;21647;-72
2023/02/01 14:51:18;;;;;;;;;;;9.40;99.20;;;;;;5040139;28;19928;-71
2023/02/01 14:53:47;;;;;;;;;;;9.30;99.70;;;;;;5039335;28;19924;-71
2023/02/01 14:56:19;;;;;;;;;;;9.40;99.90;;;;;;5035259;28;20439;-72
2023/02/01 14:58:50;;;;;;;;;;;9.40;99.90;;;;;;5038488;28;19939;-72
2023/02/01 15:01:19;;;;;;;;;;;9.50;99.90;;;;;;5049464;28;19928;-70
2023/02/01 15:03:54;;;;;;;;;;;9.40;99.90;;;;;;5046881;28;20309;-72
2023/02/01 15:06:29;;;;;;;;;;;9.40;99.90;;;;;;5044483;28;19924;-72
2023/02/01 15:09:00;;;;;;;;;;;9.30;99.90;;;;;;5048258;28;19925;-72